Etusivu
METAR-TAF:

METAR-TAF

Lentoasemat :

Nelson Lagoon, Alaska, Yhdysvallat

Leveyspiiri: 56-00-27N, Pituuspiiri: 161-09-37W, korkeus merenpinnasta: 4 m

Tämänhetkinen sää

Tämä raportti tehtiin 10 minuuttia sitten, kello 15.37 UTC
Tuuli 12 kn lännestä/luoteesta
Lämpötila 3°C
Kosteus 93%
Ilmanpaine 1019 hPa
Näkyvyys: 4.8 km
Pilvistä 300 ft:n korkeudessa
utua

METAR: PAOU 121537Z AUTO 29012KT 3SM BR OVC003 03/02 A3009 RMK AO2 PNO $

Aika: 07:47 (15:47 UTC)


TAF: puuttuu

Säähavainnot ja -ennusteet yli 4000 lentoasemalta (METAR- ja TAF-raportit).

Käytössä olevat sääasemat on merkitty karttaan keltaisilla ja punaisilla pisteillä.

Aseta hiiri pisteen päälle nähdäksesi sääaseman nimen.

Klikkaa sitten nähdäksesi säähavainnot ja -ennusteet.

Kartan vaihtaminen: klikkaa mustalla rastilla varustettuja vihreitä pisteitä, niin voit zoomata sisään; viivalla varustettua vihreää pistettä, niin voit zoomata ulos tai vihreitä nuolia, niin pääset viereisille kartoille.


METAR-TAF: